createdAt,value
2022-09-16T00:00:54.714Z,14.00
2022-09-16T00:03:22.652Z,13.90
2022-09-16T00:05:51.852Z,14.30
2022-09-16T00:08:22.611Z,13.90
2022-09-16T00:10:51.007Z,13.90
2022-09-16T00:13:20.522Z,13.90
2022-09-16T00:15:51.796Z,13.80
2022-09-16T00:18:20.234Z,13.80
2022-09-16T00:20:49.685Z,13.80
2022-09-16T00:23:18.261Z,13.80
2022-09-16T00:25:46.093Z,13.80
2022-09-16T00:28:13.834Z,13.80
2022-09-16T00:30:42.921Z,13.80
2022-09-16T00:33:11.293Z,13.80
2022-09-16T00:35:39.014Z,13.90
2022-09-16T00:38:07.424Z,13.80
2022-09-16T00:40:35.237Z,13.90
2022-09-16T00:43:03.043Z,13.80
2022-09-16T00:45:31.899Z,13.90
2022-09-16T00:48:04.291Z,13.90
2022-09-16T00:50:38.820Z,13.90
2022-09-16T00:53:08.064Z,13.80
2022-09-16T00:55:38.666Z,13.80
2022-09-16T00:58:13.261Z,13.80
2022-09-16T01:00:41.747Z,13.80
2022-09-16T01:03:11.051Z,13.80
2022-09-16T01:05:39.610Z,13.80
2022-09-16T01:08:07.344Z,13.80
2022-09-16T01:10:35.106Z,13.70
2022-09-16T01:13:05.893Z,13.70
2022-09-16T01:15:41.765Z,13.70
2022-09-16T01:18:21.383Z,13.70
2022-09-16T01:21:16.057Z,13.70
2022-09-16T01:24:12.614Z,13.70
2022-09-16T01:27:14.602Z,13.70
2022-09-16T01:30:21.043Z,13.60
2022-09-16T01:33:01.334Z,13.60
2022-09-16T01:35:48.379Z,13.60
2022-09-16T01:38:29.655Z,13.60
2022-09-16T01:41:08.782Z,13.60
2022-09-16T01:43:45.456Z,13.60
2022-09-16T01:46:22.346Z,13.50
2022-09-16T01:48:57.440Z,13.50
2022-09-16T01:51:31.719Z,13.50
2022-09-16T01:54:07.953Z,13.50
2022-09-16T01:56:43.549Z,13.50
2022-09-16T01:59:16.432Z,13.50
2022-09-16T02:01:49.918Z,13.50
2022-09-16T02:04:24.531Z,13.50
2022-09-16T02:06:54.907Z,13.50
2022-09-16T02:09:28.533Z,13.50
2022-09-16T02:11:59.633Z,13.50
2022-09-16T02:14:31.228Z,13.50
2022-09-16T02:17:02.226Z,13.50
2022-09-16T02:19:35.223Z,13.50
2022-09-16T02:22:08.440Z,13.50
2022-09-16T02:24:38.929Z,13.50
2022-09-16T02:27:11.606Z,13.50
2022-09-16T02:29:44.668Z,13.50
2022-09-16T02:32:14.185Z,13.50
2022-09-16T02:34:46.284Z,13.50
2022-09-16T02:37:19.141Z,13.50
2022-09-16T02:39:50.606Z,13.50
2022-09-16T02:42:18.824Z,13.60
2022-09-16T02:44:47.788Z,13.60
2022-09-16T02:47:26.330Z,13.60
2022-09-16T02:49:58.723Z,13.60
2022-09-16T02:52:37.158Z,13.60
2022-09-16T02:55:12.498Z,13.60
2022-09-16T02:57:41.241Z,13.60
2022-09-16T03:00:10.537Z,13.50
2022-09-16T03:02:39.294Z,13.60
2022-09-16T03:05:10.463Z,13.50
2022-09-16T03:07:40.329Z,13.50
2022-09-16T03:10:11.286Z,13.50
2022-09-16T03:12:51.995Z,13.50
2022-09-16T03:15:48.643Z,13.50
2022-09-16T03:18:40.472Z,13.50
2022-09-16T03:21:16.722Z,13.50
2022-09-16T03:23:53.228Z,13.40
2022-09-16T03:26:30.898Z,13.50
2022-09-16T03:29:13.754Z,13.50
2022-09-16T03:31:49.029Z,13.30
2022-09-16T03:34:21.054Z,13.40
2022-09-16T03:36:55.401Z,13.40
2022-09-16T03:39:23.886Z,13.30
2022-09-16T03:41:52.792Z,13.30
2022-09-16T03:44:20.623Z,13.30
2022-09-16T03:46:48.489Z,13.30
2022-09-16T03:49:16.949Z,13.30
2022-09-16T03:51:44.786Z,13.30
2022-09-16T03:54:13.957Z,13.30
2022-09-16T03:56:41.824Z,13.30
2022-09-16T03:59:09.709Z,13.30
2022-09-16T04:01:37.597Z,13.30
2022-09-16T04:04:05.516Z,13.30
2022-09-16T04:06:33.423Z,13.30
2022-09-16T04:09:03.436Z,13.30
2022-09-16T04:11:32.813Z,13.20
2022-09-16T04:14:00.696Z,13.30
2022-09-16T04:16:28.569Z,13.30
2022-09-16T04:18:56.474Z,13.30
2022-09-16T04:21:24.600Z,13.30
2022-09-16T04:23:54.522Z,13.30
2022-09-16T04:26:22.545Z,13.20
2022-09-16T04:28:53.509Z,13.30
2022-09-16T04:31:22.003Z,13.30
2022-09-16T04:33:50.633Z,13.30
2022-09-16T04:36:20.578Z,13.30
2022-09-16T04:38:49.966Z,13.30
2022-09-16T04:41:19.746Z,13.30
2022-09-16T04:43:51.108Z,13.30
2022-09-16T04:46:20.822Z,13.30
2022-09-16T04:48:49.392Z,13.30
2022-09-16T04:51:17.990Z,13.30
2022-09-16T04:53:46.052Z,13.30
2022-09-16T04:56:16.386Z,13.30
2022-09-16T04:58:45.502Z,13.30
2022-09-16T05:01:15.477Z,13.30
2022-09-16T05:03:47.269Z,13.30
2022-09-16T05:06:20.449Z,13.40
2022-09-16T05:08:49.131Z,13.40
2022-09-16T05:11:18.237Z,13.40
2022-09-16T05:13:46.606Z,13.40
2022-09-16T05:16:16.386Z,13.40
2022-09-16T05:18:47.585Z,13.40
2022-09-16T05:21:17.420Z,13.40
2022-09-16T05:23:47.180Z,13.40
2022-09-16T05:26:16.944Z,13.40
2022-09-16T05:28:44.792Z,13.40
2022-09-16T05:31:14.437Z,13.40
2022-09-16T05:33:43.787Z,13.40
2022-09-16T05:36:14.852Z,13.40
2022-09-16T05:38:54.321Z,13.40
2022-09-16T05:41:30.629Z,13.40
2022-09-16T05:44:00.449Z,13.40
2022-09-16T05:46:29.498Z,13.40
2022-09-16T05:48:57.615Z,13.40
2022-09-16T05:51:26.977Z,13.40
2022-09-16T05:53:55.852Z,13.40
2022-09-16T05:56:25.699Z,13.50
2022-09-16T05:58:54.493Z,13.50
2022-09-16T06:01:25.117Z,13.50
2022-09-16T06:03:54.877Z,13.50
2022-09-16T06:06:26.920Z,13.50
2022-09-16T06:08:57.223Z,13.50
2022-09-16T06:11:25.828Z,13.50
2022-09-16T06:13:56.364Z,13.60
2022-09-16T06:16:26.505Z,13.60
2022-09-16T06:18:54.583Z,13.60
2022-09-16T06:21:23.098Z,13.60
2022-09-16T06:23:53.224Z,13.60
2022-09-16T06:26:22.716Z,13.60
2022-09-16T06:28:51.249Z,13.70
2022-09-16T06:31:21.761Z,13.70
2022-09-16T06:33:50.488Z,13.70
2022-09-16T06:36:19.684Z,13.70
2022-09-16T06:38:48.079Z,13.70
2022-09-16T06:41:19.090Z,13.70
2022-09-16T06:43:47.925Z,13.70
2022-09-16T06:46:17.726Z,13.70
2022-09-16T06:48:47.548Z,13.70
2022-09-16T06:51:18.690Z,13.80
2022-09-16T06:53:47.052Z,13.70
2022-09-16T06:56:18.597Z,13.80
2022-09-16T06:58:48.877Z,13.80
2022-09-16T07:01:19.078Z,13.90
2022-09-16T07:03:49.225Z,13.90
2022-09-16T07:06:18.290Z,13.90
2022-09-16T07:08:47.053Z,13.90
2022-09-16T07:11:17.105Z,14.00
2022-09-16T07:13:47.998Z,14.10
2022-09-16T07:16:17.073Z,14.10
2022-09-16T07:18:46.843Z,14.10
2022-09-16T07:21:16.983Z,14.20
2022-09-16T07:23:45.781Z,14.20
2022-09-16T07:26:15.921Z,14.20
2022-09-16T07:28:46.133Z,14.20
2022-09-16T07:31:17.352Z,14.20
2022-09-16T07:33:47.671Z,14.30
2022-09-16T07:36:17.846Z,14.40
2022-09-16T07:38:45.892Z,14.50
2022-09-16T07:41:15.692Z,14.60
2022-09-16T07:43:44.299Z,14.80
2022-09-16T07:46:13.909Z,14.80
2022-09-16T07:48:43.258Z,14.90
2022-09-16T07:51:13.181Z,14.90
2022-09-16T07:53:41.438Z,15.00
2022-09-16T07:56:11.306Z,15.10
2022-09-16T07:58:39.189Z,15.20
2022-09-16T08:01:08.493Z,15.20
2022-09-16T08:03:38.334Z,15.30
2022-09-16T08:06:09.522Z,15.40
2022-09-16T08:08:37.651Z,15.50
2022-09-16T08:11:06.539Z,15.50
2022-09-16T08:13:35.779Z,15.60
2022-09-16T08:16:05.552Z,15.60
2022-09-16T08:18:33.784Z,15.60
2022-09-16T08:21:08.235Z,15.60
2022-09-16T08:23:36.260Z,15.60
2022-09-16T08:26:05.286Z,15.50
2022-09-16T08:28:45.111Z,15.40
2022-09-16T08:31:20.147Z,15.40
2022-09-16T08:33:48.672Z,15.30
2022-09-16T08:36:20.542Z,15.20
2022-09-16T08:38:50.529Z,15.20
2022-09-16T08:41:40.628Z,15.20
2022-09-16T08:44:19.969Z,15.20
2022-09-16T08:46:53.278Z,15.20
2022-09-16T08:49:28.123Z,15.10
2022-09-16T08:51:59.384Z,15.10
2022-09-16T08:54:31.381Z,15.10
2022-09-16T08:57:02.894Z,15.10
2022-09-16T08:59:43.758Z,15.10
2022-09-16T09:02:29.562Z,15.10
2022-09-16T09:04:59.038Z,15.10
2022-09-16T09:07:43.114Z,15.20
2022-09-16T09:10:19.501Z,15.20
2022-09-16T09:12:54.453Z,15.20
2022-09-16T09:15:36.434Z,15.20
2022-09-16T09:18:18.441Z,15.30
2022-09-16T09:20:54.249Z,15.30
2022-09-16T09:23:36.133Z,15.30
2022-09-16T09:26:08.577Z,15.30
2022-09-16T09:29:07.594Z,15.40
2022-09-16T09:31:44.475Z,15.40
2022-09-16T09:34:26.240Z,15.50
2022-09-16T09:37:06.629Z,15.50
2022-09-16T09:39:47.561Z,15.40
2022-09-16T09:42:21.183Z,15.50
2022-09-16T09:44:56.263Z,15.40
2022-09-16T09:47:32.579Z,15.40
2022-09-16T09:50:10.618Z,15.50
2022-09-16T09:52:45.850Z,15.80
2022-09-16T09:55:20.284Z,15.90
2022-09-16T09:58:05.096Z,15.90
2022-09-16T10:00:33.185Z,15.90
2022-09-16T10:03:11.162Z,15.90
2022-09-16T10:05:39.513Z,15.90
2022-09-16T10:08:17.734Z,15.90
2022-09-16T10:10:51.412Z,15.90
2022-09-16T10:13:20.677Z,15.90
2022-09-16T10:15:53.386Z,16.00
2022-09-16T10:18:26.827Z,16.10
2022-09-16T10:21:06.976Z,16.10
2022-09-16T10:23:35.864Z,16.00
2022-09-16T10:26:20.155Z,16.00
2022-09-16T10:29:00.236Z,16.00
2022-09-16T10:31:34.254Z,16.00
2022-09-16T10:34:03.888Z,16.00
2022-09-16T10:36:34.913Z,16.10
2022-09-16T10:39:05.658Z,16.20
2022-09-16T10:41:42.077Z,16.30
2022-09-16T10:44:18.442Z,16.40
2022-09-16T10:46:55.310Z,16.50
2022-09-16T10:49:28.701Z,16.60
2022-09-16T10:51:56.698Z,16.60
2022-09-16T10:54:28.025Z,16.50
2022-09-16T10:56:57.197Z,16.50
2022-09-16T10:59:25.163Z,16.40
2022-09-16T11:02:05.910Z,16.30
2022-09-16T11:04:59.841Z,16.20
2022-09-16T11:07:38.027Z,16.10
2022-09-16T11:10:17.914Z,16.00
2022-09-16T11:13:03.362Z,15.90
2022-09-16T11:15:45.711Z,15.80
2022-09-16T11:18:32.169Z,15.80
2022-09-16T11:21:27.006Z,15.80
2022-09-16T11:24:15.843Z,15.70
2022-09-16T11:26:52.054Z,15.70
2022-09-16T11:29:44.179Z,15.60
2022-09-16T11:32:25.132Z,15.60
2022-09-16T11:35:20.469Z,15.50
2022-09-16T11:37:53.810Z,15.40
2022-09-16T11:40:32.403Z,15.30
2022-09-16T11:43:09.916Z,15.20
2022-09-16T11:45:47.956Z,15.10
2022-09-16T11:48:45.153Z,15.10
2022-09-16T11:51:27.162Z,15.00
2022-09-16T11:54:10.380Z,15.00
2022-09-16T11:56:43.896Z,14.90
2022-09-16T11:59:19.577Z,14.90
2022-09-16T12:01:53.070Z,14.80
2022-09-16T12:04:27.617Z,14.80
2022-09-16T12:07:01.992Z,14.90
2022-09-16T12:09:39.125Z,14.90
2022-09-16T12:12:13.013Z,15.00
2022-09-16T12:14:45.943Z,15.00
2022-09-16T12:17:19.546Z,15.00
2022-09-16T12:19:52.431Z,15.10
2022-09-16T12:22:23.869Z,15.10
2022-09-16T12:24:58.841Z,15.20
2022-09-16T12:27:36.590Z,15.20
2022-09-16T12:30:06.784Z,15.30
2022-09-16T12:32:47.398Z,15.20
2022-09-16T12:35:18.266Z,15.20
2022-09-16T12:37:49.541Z,15.30
2022-09-16T12:40:20.659Z,15.30
2022-09-16T12:43:13.577Z,15.40
2022-09-16T12:46:07.960Z,15.40
2022-09-16T12:49:04.062Z,15.40
2022-09-16T12:51:50.526Z,15.40
2022-09-16T12:55:07.776Z,15.40
2022-09-16T12:57:50.143Z,15.30
2022-09-16T13:00:21.965Z,15.30
2022-09-16T13:02:53.373Z,15.30
2022-09-16T13:05:32.422Z,15.60
2022-09-16T13:08:05.427Z,16.00
2022-09-16T13:10:54.423Z,16.30
2022-09-16T13:13:35.849Z,16.50
2022-09-16T13:16:07.958Z,16.50
2022-09-16T13:18:42.165Z,16.40
2022-09-16T13:21:23.169Z,16.30
2022-09-16T13:24:01.636Z,16.10
2022-09-16T13:26:41.216Z,16.00
2022-09-16T13:29:43.864Z,15.90
2022-09-16T13:32:29.410Z,15.70
2022-09-16T13:35:05.761Z,15.60
2022-09-16T13:37:34.978Z,15.50
2022-09-16T13:40:19.968Z,15.50
2022-09-16T13:42:48.306Z,15.70
2022-09-16T13:45:33.604Z,15.80
2022-09-16T13:48:10.325Z,16.00
2022-09-16T13:50:42.030Z,16.00
2022-09-16T13:53:12.289Z,16.00
2022-09-16T13:55:42.437Z,15.90
2022-09-16T13:58:20.609Z,15.80
2022-09-16T14:00:56.626Z,15.70
2022-09-16T14:03:54.577Z,15.60
2022-09-16T14:06:46.240Z,15.50
2022-09-16T14:09:28.386Z,15.50
2022-09-16T14:12:03.780Z,15.70
2022-09-16T14:14:49.829Z,15.80
2022-09-16T14:17:21.678Z,16.00
2022-09-16T14:19:52.429Z,16.20
2022-09-16T14:22:23.038Z,16.40
2022-09-16T14:25:00.771Z,16.60
2022-09-16T14:27:40.260Z,16.60
2022-09-16T14:30:16.770Z,16.60
2022-09-16T14:32:45.536Z,16.60
2022-09-16T14:35:18.721Z,16.60
2022-09-16T14:37:48.400Z,16.70
2022-09-16T14:40:21.294Z,16.80
2022-09-16T14:42:52.825Z,16.80
2022-09-16T14:45:21.932Z,16.80
2022-09-16T14:47:52.756Z,16.90
2022-09-16T14:50:23.244Z,17.00
2022-09-16T14:52:56.050Z,17.00
2022-09-16T14:55:29.810Z,16.90
2022-09-16T14:57:58.062Z,16.90
2022-09-16T15:00:38.993Z,16.80
2022-09-16T15:03:13.733Z,16.90
2022-09-16T15:05:44.827Z,16.80
2022-09-16T15:08:20.044Z,16.90
2022-09-16T15:10:53.023Z,16.80
2022-09-16T15:13:25.240Z,16.90
2022-09-16T15:15:57.007Z,16.90
2022-09-16T15:18:28.503Z,16.80
2022-09-16T15:21:02.882Z,16.80
2022-09-16T15:23:31.864Z,16.70
2022-09-16T15:26:14.646Z,16.70
2022-09-16T15:28:57.506Z,16.70
2022-09-16T15:31:30.583Z,16.80
2022-09-16T15:34:00.501Z,16.90
2022-09-16T15:36:49.854Z,16.90
2022-09-16T15:39:26.455Z,16.90
2022-09-16T15:42:11.810Z,16.80
2022-09-16T15:44:44.974Z,16.80
2022-09-16T15:47:19.557Z,16.80
2022-09-16T15:49:50.247Z,16.80
2022-09-16T15:52:18.753Z,16.80
2022-09-16T15:54:51.718Z,16.70
2022-09-16T15:57:30.742Z,16.70
2022-09-16T16:00:10.839Z,16.60
2022-09-16T16:02:42.278Z,16.50
2022-09-16T16:05:12.363Z,16.40
2022-09-16T16:07:42.996Z,16.40
2022-09-16T16:10:20.721Z,16.30
2022-09-16T16:12:51.230Z,16.30
2022-09-16T16:15:22.223Z,16.20
2022-09-16T16:17:50.826Z,16.10
2022-09-16T16:20:19.700Z,16.00
2022-09-16T16:22:48.596Z,16.00
2022-09-16T16:25:16.991Z,15.90
2022-09-16T16:27:46.007Z,15.90
2022-09-16T16:30:15.427Z,15.70
2022-09-16T16:32:44.286Z,15.40
2022-09-16T16:35:12.147Z,15.10
2022-09-16T16:37:46.310Z,14.70
2022-09-16T16:40:14.816Z,14.50
2022-09-16T16:42:43.277Z,14.20
2022-09-16T16:45:12.737Z,14.00
2022-09-16T16:47:42.267Z,13.90
2022-09-16T16:50:11.051Z,13.80
2022-09-16T16:52:39.014Z,13.70
2022-09-16T16:55:07.610Z,13.70
2022-09-16T16:57:35.465Z,13.60
2022-09-16T17:00:03.981Z,13.50
2022-09-16T17:02:32.281Z,13.50
2022-09-16T17:05:01.525Z,13.40
2022-09-16T17:07:29.689Z,13.40
2022-09-16T17:09:58.303Z,13.30
2022-09-16T17:12:26.245Z,13.30
2022-09-16T17:14:54.093Z,13.30
2022-09-16T17:17:22.033Z,13.20
2022-09-16T17:19:49.857Z,13.20
2022-09-16T17:22:19.042Z,13.20
2022-09-16T17:24:46.899Z,13.10
2022-09-16T17:27:19.573Z,13.20
2022-09-16T17:29:47.453Z,13.10
2022-09-16T17:32:16.118Z,13.00
2022-09-16T17:34:43.949Z,13.00
2022-09-16T17:37:14.054Z,12.90
2022-09-16T17:39:43.239Z,12.90
2022-09-16T17:42:11.074Z,12.90
2022-09-16T17:44:38.924Z,12.80
2022-09-16T17:47:07.058Z,12.70
2022-09-16T17:49:34.931Z,12.70
2022-09-16T17:52:03.167Z,12.60
2022-09-16T17:54:31.217Z,12.60
2022-09-16T17:57:00.416Z,12.60
2022-09-16T17:59:28.253Z,12.50
2022-09-16T18:01:56.091Z,12.50
2022-09-16T18:04:24.008Z,12.50
2022-09-16T18:06:52.066Z,12.40
2022-09-16T18:09:19.918Z,12.40
2022-09-16T18:11:47.766Z,12.40
2022-09-16T18:14:21.315Z,12.40
2022-09-16T18:16:51.401Z,12.40
2022-09-16T18:19:19.334Z,12.40
2022-09-16T18:21:47.353Z,12.40
2022-09-16T18:24:15.227Z,12.30
2022-09-16T18:26:43.859Z,12.30
2022-09-16T18:29:12.953Z,12.30
2022-09-16T18:31:44.569Z,12.30
2022-09-16T18:34:13.361Z,12.30
2022-09-16T18:36:41.619Z,12.20
2022-09-16T18:39:13.487Z,12.20
2022-09-16T18:41:42.794Z,12.20
2022-09-16T18:44:14.350Z,12.10
2022-09-16T18:46:43.716Z,12.10
2022-09-16T18:49:13.476Z,12.10
2022-09-16T18:51:44.329Z,12.00
2022-09-16T18:54:18.373Z,12.00
2022-09-16T18:56:46.607Z,12.00
2022-09-16T18:59:21.478Z,12.00
2022-09-16T19:01:52.544Z,12.00
2022-09-16T19:04:22.342Z,12.00
2022-09-16T19:06:52.594Z,11.90
2022-09-16T19:09:23.502Z,11.90
2022-09-16T19:11:54.451Z,11.90
2022-09-16T19:14:24.582Z,11.90
2022-09-16T19:16:54.801Z,11.80
2022-09-16T19:19:23.275Z,11.70
2022-09-16T19:21:51.343Z,11.60
2022-09-16T19:24:21.785Z,11.60
2022-09-16T19:26:52.509Z,11.50
2022-09-16T19:29:21.419Z,11.40
2022-09-16T19:31:51.871Z,11.40
2022-09-16T19:34:21.817Z,11.40
2022-09-16T19:36:50.140Z,11.30
2022-09-16T19:39:18.930Z,11.30
2022-09-16T19:41:46.824Z,11.20
2022-09-16T19:44:17.760Z,11.20
2022-09-16T19:46:48.915Z,11.10
2022-09-16T19:49:19.727Z,11.10
2022-09-16T19:51:50.033Z,11.10
2022-09-16T19:54:18.278Z,11.10
2022-09-16T19:56:50.491Z,11.00
2022-09-16T19:59:18.938Z,11.00
2022-09-16T20:01:47.539Z,11.00
2022-09-16T20:04:19.350Z,11.00
2022-09-16T20:06:48.784Z,11.00
2022-09-16T20:09:17.200Z,11.00
2022-09-16T20:11:48.397Z,11.00
2022-09-16T20:14:18.729Z,11.00
2022-09-16T20:16:46.898Z,11.00
2022-09-16T20:19:16.646Z,10.90
2022-09-16T20:21:45.074Z,10.80
2022-09-16T20:24:18.024Z,10.80
2022-09-16T20:26:46.688Z,10.80
2022-09-16T20:29:14.694Z,10.80
2022-09-16T20:31:42.639Z,10.80
2022-09-16T20:34:12.345Z,10.80
2022-09-16T20:36:40.905Z,10.90
2022-09-16T20:39:09.975Z,10.90
2022-09-16T20:41:40.541Z,10.90
2022-09-16T20:44:08.754Z,11.00
2022-09-16T20:46:38.690Z,11.00
2022-09-16T20:49:10.405Z,11.00
2022-09-16T20:51:38.472Z,11.00
2022-09-16T20:54:08.714Z,11.00
2022-09-16T20:56:39.749Z,11.00
2022-09-16T20:59:08.389Z,11.00
2022-09-16T21:01:37.920Z,11.00
2022-09-16T21:04:07.463Z,11.00
2022-09-16T21:06:36.909Z,11.00
2022-09-16T21:09:06.720Z,11.00
2022-09-16T21:11:35.313Z,10.90
2022-09-16T21:14:07.484Z,10.90
2022-09-16T21:16:37.010Z,10.90
2022-09-16T21:19:09.061Z,10.90
2022-09-16T21:21:38.281Z,10.90
2022-09-16T21:24:07.049Z,10.90
2022-09-16T21:26:36.841Z,10.90
2022-09-16T21:29:09.766Z,10.90
2022-09-16T21:31:39.547Z,10.80
2022-09-16T21:34:08.394Z,10.80
2022-09-16T21:36:37.609Z,10.80
2022-09-16T21:39:05.882Z,10.70
2022-09-16T21:41:34.085Z,10.70
2022-09-16T21:44:03.792Z,10.70
2022-09-16T21:46:34.919Z,10.60
2022-09-16T21:49:04.348Z,10.60
2022-09-16T21:51:36.278Z,10.60
2022-09-16T21:54:05.548Z,10.60
2022-09-16T21:56:33.658Z,10.50
2022-09-16T21:59:01.529Z,10.50
2022-09-16T22:01:31.518Z,10.50
2022-09-16T22:04:02.982Z,10.50
2022-09-16T22:06:31.319Z,10.40
2022-09-16T22:09:02.263Z,10.40
2022-09-16T22:11:32.590Z,10.40
2022-09-16T22:14:01.588Z,10.30
2022-09-16T22:16:31.136Z,10.30
2022-09-16T22:19:02.678Z,10.30
2022-09-16T22:21:32.411Z,10.30
2022-09-16T22:24:01.878Z,10.20
2022-09-16T22:26:33.485Z,10.20
2022-09-16T22:29:01.605Z,10.10
2022-09-16T22:31:31.550Z,10.00
2022-09-16T22:34:02.295Z,10.00
2022-09-16T22:36:31.945Z,10.00
2022-09-16T22:39:03.980Z,10.00
2022-09-16T22:41:32.636Z,10.00
2022-09-16T22:44:00.605Z,10.00
2022-09-16T22:46:31.033Z,10.00
2022-09-16T22:49:00.730Z,9.90
2022-09-16T22:51:29.877Z,10.00
2022-09-16T22:53:57.836Z,10.00
2022-09-16T22:56:29.285Z,9.90
2022-09-16T22:58:58.487Z,9.90
2022-09-16T23:01:28.503Z,9.80
2022-09-16T23:03:58.489Z,9.80
2022-09-16T23:06:30.073Z,9.70
2022-09-16T23:08:58.445Z,9.60
2022-09-16T23:11:28.513Z,9.60
2022-09-16T23:13:58.002Z,9.60
2022-09-16T23:16:28.330Z,9.60
2022-09-16T23:18:57.089Z,9.60
2022-09-16T23:21:25.130Z,9.50
2022-09-16T23:23:56.270Z,9.50
2022-09-16T23:26:27.407Z,9.50
2022-09-16T23:28:57.516Z,9.50
2022-09-16T23:31:27.501Z,9.60
2022-09-16T23:33:56.132Z,9.60
2022-09-16T23:36:25.685Z,9.50
2022-09-16T23:38:55.898Z,9.60
2022-09-16T23:41:27.417Z,9.60
2022-09-16T23:43:56.504Z,9.60
2022-09-16T23:46:26.235Z,9.70
2022-09-16T23:48:54.266Z,9.60
2022-09-16T23:51:27.987Z,9.60
2022-09-16T23:53:58.989Z,9.60
2022-09-16T23:56:27.295Z,9.60
2022-09-16T23:58:59.610Z,9.60
